Time;durP1;ratioP1;P1;durP2;ratioP2;P2;SDS_P1;SDS_P2;PMS_P1;PMS_P2;Temp;Humidity;BMP_temperature;BMP_pressure;BME280_temperature;BME280_humidity;BME280_pressure;Samples;Min_cycle;Max_cycle;Signal;HPM_P1;HPM_P2
2023/11/20 00:02:13;;;;;;;1.40;1.30;;;7.90;99.90;;;;;;5084874;28;20628;-62
2023/11/20 00:04:40;;;;;;;1.87;1.83;;;8.00;99.90;;;;;;5083144;28;20213;-62
2023/11/20 00:07:08;;;;;;;2.50;2.33;;;8.10;99.90;;;;;;5092258;28;20214;-62
2023/11/20 00:09:35;;;;;;;1.77;1.77;;;8.30;99.90;;;;;;5092573;28;20282;-62
2023/11/20 00:12:03;;;;;;;4.50;2.10;;;8.30;99.90;;;;;;5092260;28;20251;-62
2023/11/20 00:14:30;;;;;;;1.87;1.77;;;8.30;99.90;;;;;;5085941;28;20229;-62
2023/11/20 00:16:57;;;;;;;1.60;1.50;;;8.20;99.90;;;;;;5086016;28;20196;-62
2023/11/20 00:19:24;;;;;;;1.33;1.33;;;8.10;99.90;;;;;;5091490;28;20264;-63
2023/11/20 00:21:51;;;;;;;2.50;1.80;;;8.10;99.90;;;;;;5091917;28;20266;-62
2023/11/20 00:24:19;;;;;;;3.03;2.00;;;8.10;99.90;;;;;;5092139;28;20231;-62
2023/11/20 00:26:46;;;;;;;1.80;1.70;;;8.00;99.90;;;;;;5086304;28;20603;-63
2023/11/20 00:29:13;;;;;;;2.90;2.70;;;8.00;99.90;;;;;;5090014;28;20202;-63
2023/11/20 00:31:40;;;;;;;1.73;1.63;;;8.00;99.90;;;;;;5092268;28;20628;-62
2023/11/20 00:34:07;;;;;;;2.30;1.97;;;7.90;99.90;;;;;;5081897;28;20247;-62
2023/11/20 00:36:37;;;;;;;1.93;1.83;;;8.00;99.90;;;;;;5088042;28;20286;-62
2023/11/20 00:39:04;;;;;;;2.63;2.43;;;8.00;99.90;;;;;;5088476;28;20256;-63
2023/11/20 00:41:35;;;;;;;2.17;2.07;;;8.00;99.90;;;;;;5072015;28;20203;-62
2023/11/20 00:44:02;;;;;;;2.30;2.20;;;7.90;99.90;;;;;;5071059;28;20736;-63
2023/11/20 00:46:29;;;;;;;2.23;1.77;;;7.90;99.90;;;;;;5071412;28;20662;-63
2023/11/20 00:48:56;;;;;;;2.40;2.20;;;7.90;99.90;;;;;;5071751;28;20247;-62
2023/11/20 00:51:23;;;;;;;3.83;2.50;;;7.90;99.90;;;;;;5089117;28;20783;-63
2023/11/20 00:53:50;;;;;;;2.90;2.70;;;7.80;99.90;;;;;;5092157;28;20265;-62
2023/11/20 00:56:19;;;;;;;2.40;2.30;;;7.80;99.90;;;;;;5091510;28;20256;-62
2023/11/20 00:58:47;;;;;;;6.37;3.40;;;7.80;99.90;;;;;;5091229;28;20234;-62
2023/11/20 01:01:14;;;;;;;2.60;2.50;;;7.80;99.90;;;;;;5088920;28;20257;-62
2023/11/20 01:03:41;;;;;;;3.07;2.73;;;7.80;99.90;;;;;;5084067;28;20212;-62
2023/11/20 01:06:08;;;;;;;2.47;2.37;;;7.80;99.90;;;;;;5089222;28;20219;-62
2023/11/20 01:08:36;;;;;;;2.60;2.40;;;7.80;99.90;;;;;;5091980;28;20194;-62
2023/11/20 01:11:02;;;;;;;2.17;2.07;;;7.80;99.90;;;;;;5091989;28;20266;-62
2023/11/20 01:13:29;;;;;;;2.13;2.03;;;7.80;99.90;;;;;;5091845;28;20220;-62
2023/11/20 01:15:58;;;;;;;2.30;2.20;;;7.90;99.90;;;;;;5089522;28;20242;-62
2023/11/20 01:18:25;;;;;;;2.50;2.40;;;7.90;99.90;;;;;;5091573;28;20252;-62
2023/11/20 01:20:52;;;;;;;2.13;2.03;;;7.90;99.90;;;;;;5091622;28;20744;-62
2023/11/20 01:23:18;;;;;;;2.00;1.90;;;7.90;99.90;;;;;;5090541;28;20280;-62
2023/11/20 01:25:45;;;;;;;2.33;2.23;;;7.90;99.90;;;;;;5091271;28;20562;-63
2023/11/20 01:28:12;;;;;;;2.70;2.40;;;7.90;99.90;;;;;;5089983;28;20256;-62
2023/11/20 01:30:39;;;;;;;2.77;2.57;;;7.80;99.90;;;;;;5090032;28;20577;-62
2023/11/20 01:33:08;;;;;;;2.20;1.93;;;7.70;99.90;;;;;;5091154;28;20219;-62
2023/11/20 01:35:35;;;;;;;2.90;2.70;;;7.50;99.90;;;;;;5094216;28;20612;-62
2023/11/20 01:38:02;;;;;;;2.50;2.33;;;7.60;99.90;;;;;;5095389;28;20272;-62
2023/11/20 01:40:29;;;;;;;2.40;2.30;;;7.50;99.90;;;;;;5088435;28;20233;-62
2023/11/20 01:42:56;;;;;;;2.80;2.60;;;7.50;99.90;;;;;;5094844;28;20205;-62
2023/11/20 01:45:23;;;;;;;2.23;2.13;;;7.30;99.90;;;;;;5094611;28;20203;-62
2023/11/20 01:47:50;;;;;;;2.63;2.47;;;7.30;99.90;;;;;;5094992;28;20351;-62
2023/11/20 01:50:19;;;;;;;3.60;3.00;;;7.20;99.90;;;;;;5094930;28;20674;-62
2023/11/20 01:52:48;;;;;;;3.10;2.87;;;7.20;99.90;;;;;;5087173;28;20206;-62
2023/11/20 01:55:16;;;;;;;2.67;2.57;;;7.30;99.90;;;;;;5092094;28;20202;-62
2023/11/20 01:57:45;;;;;;;3.53;3.23;;;7.30;99.90;;;;;;5094574;28;20623;-62
2023/11/20 02:00:13;;;;;;;3.00;2.57;;;7.20;99.90;;;;;;5084252;28;20199;-62
2023/11/20 02:02:42;;;;;;;2.93;2.67;;;7.20;99.90;;;;;;5094697;28;20188;-62
2023/11/20 02:05:10;;;;;;;3.80;3.43;;;7.20;99.90;;;;;;5088127;28;20202;-62
2023/11/20 02:07:38;;;;;;;2.70;2.50;;;7.20;99.90;;;;;;5094437;28;20307;-63
2023/11/20 02:10:07;;;;;;;3.00;2.80;;;7.10;99.90;;;;;;5094565;28;20674;-62
2023/11/20 02:12:35;;;;;;;2.30;2.17;;;7.10;99.90;;;;;;5092733;28;20281;-63
2023/11/20 02:15:02;;;;;;;3.03;2.83;;;7.10;99.90;;;;;;5087237;28;20223;-62
2023/11/20 02:17:29;;;;;;;2.30;2.20;;;7.20;99.90;;;;;;5090379;28;20196;-62
2023/11/20 02:19:56;;;;;;;2.07;1.93;;;7.10;99.90;;;;;;5094430;28;20194;-62
2023/11/20 02:22:23;;;;;;;1.97;1.83;;;7.10;99.90;;;;;;5090355;28;20723;-62
2023/11/20 02:24:52;;;;;;;2.37;1.50;;;7.20;99.90;;;;;;5094184;28;20219;-63
2023/11/20 02:27:39;;;;;;;1.63;1.53;;;7.10;99.90;;;;;;5092743;28;20218;-62
2023/11/20 02:30:09;;;;;;;2.90;2.03;;;7.20;99.90;;;;;;5086718;28;20252;-62
2023/11/20 02:32:36;;;;;;;1.57;1.57;;;7.20;99.90;;;;;;5094172;28;20627;-62
2023/11/20 02:35:04;;;;;;;1.57;1.57;;;7.30;99.90;;;;;;5093867;28;20279;-62
2023/11/20 02:37:31;;;;;;;2.43;1.33;;;7.40;99.90;;;;;;5093635;28;20198;-62
2023/11/20 02:39:58;;;;;;;2.03;1.30;;;7.40;99.90;;;;;;5094149;28;20631;-62
2023/11/20 02:42:25;;;;;;;2.53;1.80;;;7.40;99.90;;;;;;5085088;28;20207;-62
2023/11/20 02:44:52;;;;;;;1.47;1.37;;;7.50;99.90;;;;;;5088432;28;20271;-62
2023/11/20 02:47:22;;;;;;;2.80;1.60;;;7.40;99.90;;;;;;5086945;28;20227;-62
2023/11/20 02:49:49;;;;;;;1.63;1.60;;;7.40;99.90;;;;;;5073683;28;20253;-62
2023/11/20 02:52:16;;;;;;;4.80;2.30;;;7.20;99.90;;;;;;5074809;28;20286;-62
2023/11/20 02:54:44;;;;;;;2.40;2.30;;;7.30;99.90;;;;;;5087755;28;20706;-62
2023/11/20 02:57:11;;;;;;;1.90;1.80;;;7.20;99.90;;;;;;5093362;28;20201;-62
2023/11/20 02:59:38;;;;;;;1.90;1.80;;;7.30;99.90;;;;;;5093067;28;20202;-62
2023/11/20 03:02:05;;;;;;;1.73;1.63;;;;;;;;;;5089632;28;20562;-62
2023/11/20 03:04:34;;;;;;;1.50;1.40;;;7.30;99.90;;;;;;5073173;28;20738;-62
2023/11/20 03:07:01;;;;;;;1.40;1.40;;;7.30;99.90;;;;;;5071896;28;20250;-62
2023/11/20 03:09:28;;;;;;;1.17;1.17;;;7.30;99.90;;;;;;5092806;28;20224;-62
2023/11/20 03:11:55;;;;;;;1.60;1.50;;;7.40;99.90;;;;;;5093279;28;20678;-62
2023/11/20 03:14:22;;;;;;;2.77;1.87;;;7.40;99.90;;;;;;5092141;28;20238;-62
2023/11/20 03:16:49;;;;;;;1.83;0.93;;;7.40;99.90;;;;;;5086707;28;20198;-62
2023/11/20 03:19:15;;;;;;;4.23;1.30;;;7.50;99.90;;;;;;5081859;28;20256;-62
2023/11/20 03:21:44;;;;;;;1.50;1.40;;;7.50;99.90;;;;;;5093279;28;20198;-62
2023/11/20 03:24:11;;;;;;;1.50;1.40;;;7.50;99.90;;;;;;5093266;28;20313;-62
2023/11/20 03:26:38;;;;;;;2.83;1.10;;;7.50;99.90;;;;;;5092603;28;20709;-62
2023/11/20 03:29:05;;;;;;;1.40;1.23;;;7.50;99.90;;;;;;5093203;28;20202;-62
2023/11/20 03:31:37;;;;;;;2.97;1.63;;;7.50;99.90;;;;;;5081921;28;20280;-62
2023/11/20 03:34:05;;;;;;;2.67;1.67;;;7.50;99.90;;;;;;5088531;28;20258;-62
2023/11/20 03:36:36;;;;;;;1.17;1.17;;;7.60;99.90;;;;;;5092638;28;20263;-62
2023/11/20 03:39:04;;;;;;;1.37;1.27;;;7.60;99.90;;;;;;5093019;28;20646;-62
2023/11/20 03:41:32;;;;;;;1.20;1.20;;;7.70;99.90;;;;;;5092781;28;20199;-62
2023/11/20 03:43:59;;;;;;;1.07;1.00;;;7.70;99.90;;;;;;5091484;28;20237;-62
2023/11/20 03:46:26;;;;;;;1.13;1.03;;;7.70;99.90;;;;;;5076356;28;20640;-62
2023/11/20 03:48:53;;;;;;;1.00;1.00;;;7.60;99.90;;;;;;5092499;28;20632;-62
2023/11/20 03:51:20;;;;;;;1.20;1.10;;;7.70;99.90;;;;;;5092832;28;20202;-62
2023/11/20 03:53:47;;;;;;;1.10;1.10;;;7.70;99.90;;;;;;5092643;28;20221;-62
2023/11/20 03:56:16;;;;;;;0.80;0.80;;;7.70;99.90;;;;;;5091645;28;20204;-62
2023/11/20 03:58:44;;;;;;;1.37;1.27;;;7.80;99.90;;;;;;5088193;28;20226;-62
2023/11/20 04:01:11;;;;;;;3.37;1.07;;;7.80;99.90;;;;;;5092495;28;20640;-62
2023/11/20 04:03:39;;;;;;;1.40;1.30;;;7.80;99.90;;;;;;5090653;28;20259;-62
2023/11/20 04:06:06;;;;;;;1.83;1.50;;;7.80;99.90;;;;;;5091970;28;20281;-62
2023/11/20 04:08:33;;;;;;;1.10;0.83;;;7.80;99.90;;;;;;5092439;28;20199;-62
2023/11/20 04:11:02;;;;;;;1.60;1.50;;;7.80;99.90;;;;;;5081834;28;20582;-62
2023/11/20 04:13:30;;;;;;;1.63;1.53;;;7.80;99.90;;;;;;5091945;28;20280;-62
2023/11/20 04:15:57;;;;;;;1.03;1.03;;;7.80;99.90;;;;;;5091882;28;20203;-62
2023/11/20 04:18:24;;;;;;;1.17;1.17;;;7.80;99.90;;;;;;5076242;28;20264;-62
2023/11/20 04:20:51;;;;;;;0.80;0.80;;;7.80;99.90;;;;;;5071617;28;20648;-62
2023/11/20 04:23:18;;;;;;;1.37;1.10;;;7.90;99.90;;;;;;5081660;28;20226;-62
2023/11/20 04:25:45;;;;;;;2.30;1.17;;;7.90;99.90;;;;;;5084711;28;20200;-62
2023/11/20 04:28:12;;;;;;;0.83;0.83;;;7.90;99.90;;;;;;5083093;28;20219;-62
2023/11/20 04:30:41;;;;;;;0.80;0.80;;;7.90;99.90;;;;;;5090944;28;20207;-62
2023/11/20 04:33:08;;;;;;;2.60;0.93;;;8.00;99.90;;;;;;5080747;28;20263;-62
2023/11/20 04:35:34;;;;;;;0.80;0.80;;;8.00;99.90;;;;;;5077825;28;20722;-62
2023/11/20 04:38:01;;;;;;;1.70;0.90;;;7.90;99.90;;;;;;5089227;28;20260;-62
2023/11/20 04:40:28;;;;;;;1.63;0.70;;;8.00;99.90;;;;;;5081361;28;20261;-62
2023/11/20 04:42:56;;;;;;;0.50;0.50;;;8.00;99.90;;;;;;5080812;28;20199;-62
2023/11/20 04:45:23;;;;;;;0.60;0.57;;;8.00;99.90;;;;;;5075823;28;20195;-62
2023/11/20 04:47:51;;;;;;;1.07;1.00;;;8.10;99.90;;;;;;5091451;28;20218;-62
2023/11/20 04:50:18;;;;;;;1.20;0.90;;;8.00;99.90;;;;;;5075362;28;20265;-62
2023/11/20 04:52:45;;;;;;;1.13;0.60;;;8.10;99.90;;;;;;5084793;28;20249;-62
2023/11/20 04:55:12;;;;;;;0.40;0.40;;;8.10;99.90;;;;;;5079242;28;20210;-62
2023/11/20 04:57:39;;;;;;;0.60;0.60;;;8.10;99.90;;;;;;5091478;28;20195;-62
2023/11/20 05:00:08;;;;;;;0.73;0.50;;;8.10;99.90;;;;;;5091684;28;20261;-62
2023/11/20 05:02:35;;;;;;;0.40;0.40;;;8.10;99.90;;;;;;5075333;28;20658;-61
2023/11/20 05:05:05;;;;;;;1.80;0.50;;;8.10;99.90;;;;;;5076553;28;20219;-62
2023/11/20 05:07:33;;;;;;;0.70;0.50;;;8.10;99.90;;;;;;5085364;28;20219;-62
2023/11/20 05:10:00;;;;;;;0.83;0.60;;;8.10;99.90;;;;;;5083559;28;20777;-62
2023/11/20 05:12:27;;;;;;;0.73;0.43;;;8.10;99.90;;;;;;5074129;28;20197;-62
2023/11/20 05:14:54;;;;;;;0.90;0.90;;;8.10;99.90;;;;;;5079975;28;20273;-62
2023/11/20 05:17:21;;;;;;;2.40;1.60;;;8.10;99.90;;;;;;5082529;28;20204;-62
2023/11/20 05:19:48;;;;;;;1.60;1.50;;;8.10;99.90;;;;;;5075096;28;20193;-62
2023/11/20 05:22:17;;;;;;;1.10;1.00;;;8.10;99.90;;;;;;5081875;28;20624;-62
2023/11/20 05:24:44;;;;;;;1.37;1.37;;;8.10;99.90;;;;;;5079108;28;20226;-62
2023/11/20 05:27:11;;;;;;;0.90;0.90;;;8.10;99.90;;;;;;5077843;28;20701;-62
2023/11/20 05:29:39;;;;;;;1.43;1.10;;;8.10;99.90;;;;;;5074974;28;20200;-62
2023/11/20 05:32:06;;;;;;;3.30;2.70;;;8.10;99.90;;;;;;5074867;28;20208;-62
2023/11/20 05:34:34;;;;;;;3.63;3.43;;;8.20;99.90;;;;;;5080804;28;20227;-62
2023/11/20 05:37:01;;;;;;;3.37;2.87;;;8.10;99.90;;;;;;5074869;28;20985;-62
2023/11/20 05:39:29;;;;;;;2.03;1.93;;;8.10;99.90;;;;;;5076707;28;20193;-62
2023/11/20 05:41:56;;;;;;;7.00;6.30;;;8.10;99.90;;;;;;5074569;28;20207;-62
2023/11/20 05:44:23;;;;;;;5.67;5.27;;;8.10;99.90;;;;;;5074314;28;20271;-62
2023/11/20 05:46:51;;;;;;;5.00;4.50;;;8.10;99.90;;;;;;5073981;28;20664;-62
2023/11/20 05:49:18;;;;;;;7.47;5.30;;;8.10;99.90;;;;;;5101569;28;20286;-61
2023/11/20 05:51:45;;;;;;;4.63;3.40;;;8.10;99.90;;;;;;5075236;28;20256;-62
2023/11/20 05:54:12;;;;;;;2.17;2.07;;;8.10;99.90;;;;;;5074561;28;20228;-62
2023/11/20 05:56:41;;;;;;;2.30;2.10;;;8.10;99.90;;;;;;5074122;28;20204;-62
2023/11/20 05:59:10;;;;;;;6.75;1.70;;;8.00;99.90;;;;;;5078909;28;20497;-62
2023/11/20 06:01:40;;;;;;;1.87;0.93;;;8.10;99.90;;;;;;5073047;28;20299;-64
2023/11/20 06:04:08;;;;;;;2.00;1.20;;;8.10;99.90;;;;;;5073285;28;20227;-64
2023/11/20 06:06:36;;;;;;;1.37;0.80;;;8.10;99.90;;;;;;5073835;28;20206;-63
2023/11/20 06:09:05;;;;;;;1.10;0.90;;;8.00;99.90;;;;;;5090681;28;20307;-63
2023/11/20 06:11:36;;;;;;;1.13;1.13;;;8.10;99.90;;;;;;5094170;28;20195;-62
2023/11/20 06:14:04;;;;;;;1.53;1.10;;;8.10;99.90;;;;;;5080810;28;20216;-64
2023/11/20 06:16:31;;;;;;;1.20;1.10;;;8.00;99.90;;;;;;5077148;28;20256;-63
2023/11/20 06:18:58;;;;;;;1.40;1.30;;;8.10;99.90;;;;;;5094046;28;20202;-64
2023/11/20 06:21:26;;;;;;;0.97;0.80;;;8.20;99.90;;;;;;5093314;28;20237;-62
2023/11/20 06:23:53;;;;;;;1.20;1.10;;;8.10;99.90;;;;;;5093965;28;20228;-62
2023/11/20 06:26:21;;;;;;;1.47;1.43;;;8.10;99.90;;;;;;5091656;28;20651;-64
2023/11/20 06:28:48;;;;;;;1.13;1.03;;;8.10;99.90;;;;;;5086749;28;20274;-63
2023/11/20 06:31:16;;;;;;;2.60;1.10;;;8.10;99.90;;;;;;5082145;28;20206;-65
2023/11/20 06:33:43;;;;;;;3.00;1.00;;;8.10;99.90;;;;;;5073306;28;20215;-64
2023/11/20 06:36:11;;;;;;;1.37;1.27;;;8.10;99.90;;;;;;5073342;28;20294;-63
2023/11/20 06:38:39;;;;;;;0.87;0.83;;;8.10;99.90;;;;;;5085784;28;20190;-63
2023/11/20 06:41:07;;;;;;;1.43;1.33;;;8.00;99.90;;;;;;5085390;28;20203;-60
2023/11/20 06:43:34;;;;;;;1.57;1.30;;;8.10;99.90;;;;;;5082150;28;20229;-61
2023/11/20 06:46:02;;;;;;;1.33;0.90;;;8.00;99.90;;;;;;5076204;28;20203;-70
2023/11/20 06:48:31;;;;;;;0.87;0.77;;;8.10;99.90;;;;;;5071509;28;20563;-61
2023/11/20 06:50:58;;;;;;;0.70;0.70;;;8.10;99.90;;;;;;5087731;28;20264;-61
2023/11/20 06:53:25;;;;;;;3.20;1.37;;;8.10;99.90;;;;;;5092834;28;20226;-61
2023/11/20 06:55:52;;;;;;;2.40;1.00;;;8.20;99.90;;;;;;5091884;28;20249;-64
2023/11/20 06:58:19;;;;;;;1.00;0.90;;;8.30;99.90;;;;;;5083142;28;20577;-64
2023/11/20 07:00:46;;;;;;;1.10;0.97;;;8.30;99.90;;;;;;5085954;28;20463;-64
2023/11/20 07:03:13;;;;;;;1.77;1.20;;;8.40;99.90;;;;;;5092349;28;20230;-64
2023/11/20 07:05:41;;;;;;;3.23;1.10;;;8.40;99.90;;;;;;5092248;28;20206;-64
2023/11/20 07:08:08;;;;;;;1.73;1.53;;;8.50;99.90;;;;;;5092782;28;20276;-64
2023/11/20 07:10:35;;;;;;;1.43;1.33;;;8.50;99.90;;;;;;5090317;28;20199;-63
2023/11/20 07:13:02;;;;;;;1.23;1.17;;;8.50;99.90;;;;;;5091808;28;20202;-66
2023/11/20 07:15:32;;;;;;;2.23;1.30;;;8.50;99.90;;;;;;5084381;28;20556;-66
2023/11/20 07:17:59;;;;;;;1.13;0.93;;;8.50;99.90;;;;;;5081430;28;20286;-64
2023/11/20 07:20:26;;;;;;;2.73;1.70;;;8.50;99.90;;;;;;5092968;28;20557;-66
2023/11/20 07:22:55;;;;;;;0.97;0.83;;;8.50;99.90;;;;;;5089526;28;20668;-63
2023/11/20 07:25:22;;;;;;;1.20;1.10;;;8.50;99.90;;;;;;5083863;28;20672;-63
2023/11/20 07:27:49;;;;;;;0.60;0.60;;;8.40;99.90;;;;;;5085731;28;20211;-62
2023/11/20 07:30:16;;;;;;;2.50;0.90;;;8.40;99.90;;;;;;5089588;28;20755;-62
2023/11/20 07:32:43;;;;;;;1.60;0.80;;;8.50;99.90;;;;;;5090631;28;20658;-63
2023/11/20 07:35:13;;;;;;;0.60;0.60;;;8.50;99.90;;;;;;5092294;28;20264;-62
2023/11/20 07:37:43;;;;;;;0.70;0.70;;;8.50;99.90;;;;;;5074506;28;20569;-62
2023/11/20 07:40:12;;;;;;;1.90;1.07;;;8.60;99.90;;;;;;5079008;28;20260;-61
2023/11/20 07:42:40;;;;;;;1.03;0.90;;;8.60;99.90;;;;;;5082571;28;20198;-66
2023/11/20 07:45:08;;;;;;;1.47;1.17;;;8.60;99.90;;;;;;5081937;28;20726;-66
2023/11/20 07:47:35;;;;;;;1.20;0.70;;;8.70;99.90;;;;;;5073889;28;20193;-66
2023/11/20 07:50:02;;;;;;;3.73;1.23;;;8.80;99.90;;;;;;5072046;28;20204;-66
2023/11/20 07:52:29;;;;;;;0.80;0.80;;;8.80;99.90;;;;;;5087448;28;20756;-66
2023/11/20 07:54:56;;;;;;;0.93;0.83;;;8.90;99.90;;;;;;5075501;28;20288;-66
2023/11/20 07:57:25;;;;;;;0.80;0.80;;;8.90;99.90;;;;;;5086126;28;20710;-66
2023/11/20 07:59:53;;;;;;;0.90;0.90;;;8.90;99.90;;;;;;5077360;28;20703;-66
2023/11/20 08:02:20;;;;;;;2.53;0.90;;;8.90;99.90;;;;;;5076816;28;20207;-66
2023/11/20 08:04:47;;;;;;;1.67;1.57;;;8.90;99.90;;;;;;5084068;28;20871;-66
2023/11/20 08:07:14;;;;;;;0.83;0.83;;;8.90;99.90;;;;;;5076648;28;20199;-67
2023/11/20 08:09:41;;;;;;;0.70;0.70;;;8.90;99.90;;;;;;5076699;28;20220;-66
2023/11/20 08:12:08;;;;;;;1.47;1.40;;;8.90;99.90;;;;;;5088039;28;20200;-66
2023/11/20 08:14:37;;;;;;;1.40;1.07;;;8.90;99.90;;;;;;5089289;28;20284;-66
2023/11/20 08:17:04;;;;;;;2.00;1.07;;;8.80;99.90;;;;;;5091557;28;20203;-66
2023/11/20 08:19:31;;;;;;;2.27;0.87;;;8.80;99.90;;;;;;5092015;28;20203;-66
2023/11/20 08:21:58;;;;;;;1.40;0.90;;;8.80;99.90;;;;;;5077634;28;20202;-67
2023/11/20 08:24:25;;;;;;;4.70;0.50;;;8.80;99.90;;;;;;5082842;28;20771;-66
2023/11/20 08:26:52;;;;;;;2.20;0.70;;;8.80;99.90;;;;;;5087874;28;20204;-66
2023/11/20 08:29:19;;;;;;;0.77;0.63;;;8.80;99.90;;;;;;5083508;28;20223;-66
2023/11/20 08:31:47;;;;;;;2.47;0.73;;;8.80;99.90;;;;;;5085884;28;20200;-66
2023/11/20 08:34:14;;;;;;;1.37;0.80;;;8.80;99.90;;;;;;5083718;28;20235;-66
2023/11/20 08:36:43;;;;;;;0.80;0.80;;;8.80;99.90;;;;;;5079501;28;20260;-66
2023/11/20 08:39:12;;;;;;;0.60;0.60;;;8.90;99.90;;;;;;5080651;28;20211;-66
2023/11/20 08:41:40;;;;;;;3.20;1.20;;;8.90;99.90;;;;;;5083933;28;20310;-66
2023/11/20 08:44:08;;;;;;;1.83;1.60;;;9.00;99.90;;;;;;5089281;28;20226;-67
2023/11/20 08:46:37;;;;;;;1.33;0.93;;;9.10;99.90;;;;;;5091134;28;20279;-66
2023/11/20 08:49:06;;;;;;;1.07;0.80;;;9.30;99.90;;;;;;5091453;28;20717;-66
2023/11/20 08:51:35;;;;;;;0.43;0.40;;;9.40;99.90;;;;;;5080893;28;20265;-67
2023/11/20 08:54:02;;;;;;;2.50;0.60;;;9.50;99.90;;;;;;5076611;28;20227;-66
2023/11/20 08:56:29;;;;;;;3.33;0.80;;;9.60;99.90;;;;;;5081470;28;20666;-66
2023/11/20 08:58:57;;;;;;;2.03;1.10;;;9.70;99.90;;;;;;5089484;28;20212;-66
2023/11/20 09:01:31;;;;;;;1.70;0.70;;;9.80;99.90;;;;;;5091339;28;20579;-66
2023/11/20 09:03:58;;;;;;;1.63;0.90;;;10.00;99.90;;;;;;5091510;28;20658;-66
2023/11/20 09:06:26;;;;;;;4.60;1.50;;;10.10;99.90;;;;;;5081301;28;20217;-67
2023/11/20 09:08:54;;;;;;;1.03;0.73;;;10.20;99.90;;;;;;5079469;28;20275;-66
2023/11/20 09:11:21;;;;;;;0.80;0.57;;;10.20;99.90;;;;;;5071154;28;20208;-66
2023/11/20 09:13:48;;;;;;;1.03;0.80;;;10.30;99.90;;;;;;5071084;28;20274;-66
2023/11/20 09:16:15;;;;;;;0.80;0.80;;;10.30;99.90;;;;;;5087608;28;20207;-67
2023/11/20 09:18:42;;;;;;;1.07;1.07;;;10.40;99.90;;;;;;5070320;28;20296;-66
2023/11/20 09:21:09;;;;;;;0.70;0.70;;;10.50;99.90;;;;;;5074475;28;20200;-67
2023/11/20 09:23:38;;;;;;;1.20;0.73;;;10.70;99.90;;;;;;5073419;28;20223;-67
2023/11/20 09:26:08;;;;;;;1.17;1.07;;;10.90;99.90;;;;;;5083646;28;20230;-66
2023/11/20 09:28:35;;;;;;;0.70;0.70;;;11.30;99.90;;;;;;5086879;28;20214;-66
2023/11/20 09:31:03;;;;;;;2.57;1.37;;;11.70;99.90;;;;;;5086890;28;20237;-67
2023/11/20 09:33:31;;;;;;;2.60;0.63;;;11.70;99.90;;;;;;5084202;28;20220;-66
2023/11/20 09:35:57;;;;;;;0.40;0.40;;;12.00;99.90;;;;;;5088409;28;20646;-66
2023/11/20 09:38:24;;;;;;;2.33;0.50;;;12.10;99.90;;;;;;5071943;28;20200;-67
2023/11/20 09:40:55;;;;;;;0.50;0.50;;;12.30;99.90;;;;;;5091324;28;20252;-66
2023/11/20 09:43:23;;;;;;;0.77;0.77;;;12.40;99.90;;;;;;5090905;28;20306;-66
2023/11/20 09:45:55;;;;;;;5.30;0.80;;;12.60;99.90;;;;;;5085669;28;20236;-66
2023/11/20 09:48:23;;;;;;;1.97;1.00;;;12.70;99.90;;;;;;5073761;28;20231;-66
2023/11/20 09:50:51;;;;;;;2.97;1.17;;;12.60;99.90;;;;;;5077697;28;20552;-66
2023/11/20 09:53:18;;;;;;;1.03;0.77;;;12.40;99.90;;;;;;5070648;28;20712;-66
2023/11/20 09:55:47;;;;;;;2.40;0.90;;;12.50;99.90;;;;;;5080801;28;20200;-66
2023/11/20 09:58:15;;;;;;;0.70;0.60;;;12.60;99.90;;;;;;5074531;28;20204;-66
2023/11/20 10:00:42;;;;;;;2.00;0.70;;;12.60;99.90;;;;;;5086705;28;20235;-66
2023/11/20 10:03:12;;;;;;;1.87;0.90;;;12.80;99.90;;;;;;5094475;28;20289;-66
2023/11/20 10:05:48;;;;;;;1.67;1.57;;;12.90;99.90;;;;;;5091858;28;20703;-66
2023/11/20 10:08:17;;;;;;;3.93;3.37;;;13.10;99.90;;;;;;5094302;28;20745;-66
2023/11/20 10:10:44;;;;;;;1.37;0.80;;;13.40;99.90;;;;;;5080933;28;20261;-67
2023/11/20 10:13:15;;;;;;;0.70;0.70;;;13.70;99.90;;;;;;5077995;28;20269;-67
2023/11/20 10:15:42;;;;;;;1.57;0.70;;;14.00;99.90;;;;;;5080268;28;20200;-67
2023/11/20 10:18:09;;;;;;;0.60;0.60;;;14.60;99.90;;;;;;5089725;28;20211;-67
2023/11/20 10:20:49;;;;;;;1.53;0.90;;;14.90;99.90;;;;;;5089740;28;20250;-67
2023/11/20 10:23:16;;;;;;;1.10;1.00;;;15.30;99.90;;;;;;5091986;28;20230;-67
2023/11/20 10:25:44;;;;;;;0.60;0.60;;;15.40;99.90;;;;;;5092050;28;20208;-67
2023/11/20 10:28:14;;;;;;;1.57;0.73;;;15.00;99.90;;;;;;5086369;28;20294;-66
2023/11/20 10:30:43;;;;;;;4.00;1.10;;;14.70;99.90;;;;;;5085548;28;20753;-67
2023/11/20 10:33:18;;;;;;;0.90;0.90;;;14.40;99.90;;;;;;5090790;28;20248;-66
2023/11/20 10:35:45;;;;;;;0.90;0.80;;;14.20;99.90;;;;;;5093513;28;20219;-67
2023/11/20 10:38:12;;;;;;;1.80;1.13;;;14.20;99.90;;;;;;5093875;28;20718;-66
2023/11/20 10:40:44;;;;;;;1.80;0.53;;;14.20;99.90;;;;;;5091534;28;20676;-67
2023/11/20 10:43:11;;;;;;;0.60;0.60;;;14.30;99.90;;;;;;5084582;28;20225;-66
2023/11/20 10:45:38;;;;;;;0.70;0.70;;;14.20;99.90;;;;;;5081537;28;20247;-67
2023/11/20 10:48:08;;;;;;;0.50;0.50;;;14.20;99.90;;;;;;5073551;28;20205;-66
2023/11/20 10:50:36;;;;;;;1.27;0.57;;;14.20;99.90;;;;;;5073330;28;20221;-66
2023/11/20 10:53:07;;;;;;;1.53;0.50;;;14.20;99.90;;;;;;5073424;28;20228;-66
2023/11/20 10:55:42;;;;;;;1.30;0.70;;;14.10;99.90;;;;;;5072867;28;20207;-66
2023/11/20 10:58:10;;;;;;;0.43;0.43;;;14.10;99.90;;;;;;5088229;28;20239;-66
2023/11/20 11:00:39;;;;;;;0.77;0.30;;;14.10;99.90;;;;;;5079023;28;20189;-66
2023/11/20 11:03:09;;;;;;;1.33;0.60;;;14.00;99.90;;;;;;5083466;28;20270;-67
2023/11/20 11:05:39;;;;;;;1.50;0.37;;;14.00;99.90;;;;;;5091097;28;20204;-66
2023/11/20 11:08:08;;;;;;;5.23;0.50;;;14.10;99.90;;;;;;5086243;28;20203;-67
2023/11/20 11:10:40;;;;;;;1.33;0.70;;;14.20;99.90;;;;;;5092640;28;20306;-66
2023/11/20 11:13:08;;;;;;;1.03;0.43;;;14.30;99.90;;;;;;5093315;28;20654;-67
2023/11/20 11:15:36;;;;;;;1.13;0.37;;;14.30;99.90;;;;;;5080108;28;20208;-66
2023/11/20 11:18:05;;;;;;;2.10;0.60;;;14.50;99.90;;;;;;5093262;28;20220;-67
2023/11/20 11:20:44;;;;;;;0.70;0.40;;;14.70;99.90;;;;;;5093137;28;20244;-67
2023/11/20 11:23:11;;;;;;;0.47;0.47;;;14.90;99.90;;;;;;5092276;28;20259;-67
2023/11/20 11:25:41;;;;;;;6.37;5.87;;;15.00;99.90;;;;;;5088131;28;20203;-67
2023/11/20 11:28:13;;;;;;;0.70;0.40;;;15.30;99.90;;;;;;5092281;28;20287;-66
2023/11/20 11:30:44;;;;;;;1.60;0.47;;;15.30;99.90;;;;;;5087793;28;20227;-66
2023/11/20 11:33:37;;;;;;;1.20;0.40;;;15.10;99.90;;;;;;5075567;28;20221;-66
2023/11/20 11:36:28;;;;;;;1.83;0.50;;;15.10;99.90;;;;;;5087433;28;20208;-66
2023/11/20 11:39:13;;;;;;;2.33;0.43;;;15.20;99.90;;;;;;5072736;28;20217;-67
2023/11/20 11:41:59;;;;;;;1.10;0.30;;;15.10;99.90;;;;;;5072556;28;20208;-66
2023/11/20 11:44:38;;;;;;;0.90;0.37;;;14.80;99.90;;;;;;5075664;28;20303;-66
2023/11/20 11:47:08;;;;;;;0.30;0.30;;;14.30;99.90;;;;;;5087859;28;20204;-66
2023/11/20 11:49:37;;;;;;;0.87;0.30;;;14.10;99.90;;;;;;5091676;28;20227;-66
2023/11/20 11:52:08;;;;;;;0.93;0.70;;;14.20;99.90;;;;;;5092883;28;20281;-66
2023/11/20 11:54:35;;;;;;;0.67;0.63;;;14.50;99.90;;;;;;5091149;28;20215;-66
2023/11/20 11:57:11;;;;;;;3.00;1.73;;;14.10;99.90;;;;;;5092245;28;20192;-66
2023/11/20 11:59:40;;;;;;;0.90;0.30;;;14.10;99.90;;;;;;5092573;28;20207;-67
2023/11/20 12:02:07;;;;;;;2.13;0.40;;;14.00;99.90;;;;;;5089750;28;20200;-66
2023/11/20 12:05:00;;;;;;;4.10;1.30;;;13.80;99.90;;;;;;5087766;28;20216;-66
2023/11/20 12:07:53;;;;;;;2.23;1.50;;;13.50;99.90;;;;;;5091995;28;20203;-67
2023/11/20 12:10:50;;;;;;;7.00;6.23;;;13.50;99.90;;;;;;5092327;28;20223;-66
2023/11/20 12:13:18;;;;;;;3.43;0.97;;;13.50;99.90;;;;;;5092456;28;20630;-66
2023/11/20 12:15:47;;;;;;;2.00;0.50;;;13.30;99.90;;;;;;5082771;28;20209;-67
2023/11/20 12:18:17;;;;;;;5.17;4.67;;;13.10;99.90;;;;;;5077186;28;20671;-67
2023/11/20 12:21:00;;;;;;;1.20;1.00;;;13.10;99.90;;;;;;5075358;28;20555;-67
2023/11/20 12:23:31;;;;;;;1.57;0.50;;;13.10;99.90;;;;;;5082766;28;20216;-66
2023/11/20 12:25:59;;;;;;;1.80;0.40;;;13.10;99.90;;;;;;5091321;28;20676;-66
2023/11/20 12:28:27;;;;;;;3.37;0.60;;;13.00;99.90;;;;;;5088507;28;20195;-66
2023/11/20 12:30:55;;;;;;;2.90;1.13;;;12.90;99.90;;;;;;5091843;28;20277;-66
2023/11/20 12:33:22;;;;;;;3.77;2.47;;;12.90;99.90;;;;;;5081783;28;20716;-66
2023/11/20 12:35:52;;;;;;;6.97;3.50;;;13.00;99.90;;;;;;5091389;28;20211;-66
2023/11/20 12:38:20;;;;;;;3.57;2.07;;;13.10;99.90;;;;;;5077434;28;20259;-66
2023/11/20 12:40:52;;;;;;;5.20;2.97;;;13.10;99.90;;;;;;5091798;28;20294;-66
2023/11/20 12:43:19;;;;;;;2.03;1.00;;;13.10;99.90;;;;;;5083028;28;20224;-67
2023/11/20 12:45:47;;;;;;;1.83;0.80;;;13.10;99.90;;;;;;5071225;28;20251;-66
2023/11/20 12:48:14;;;;;;;7.53;3.47;;;13.30;99.90;;;;;;5075708;28;20291;-66
2023/11/20 12:50:45;;;;;;;1.83;0.50;;;13.50;99.90;;;;;;5080017;28;20668;-66
2023/11/20 12:53:13;;;;;;;1.13;0.43;;;13.50;99.90;;;;;;5071556;28;20309;-65
2023/11/20 12:55:41;;;;;;;0.97;0.30;;;13.70;99.90;;;;;;5075416;28;20284;-63
2023/11/20 12:58:10;;;;;;;1.07;0.40;;;13.70;99.90;;;;;;5090469;28;20201;-61
2023/11/20 13:00:37;;;;;;;0.83;0.50;;;13.80;99.90;;;;;;5091160;28;20196;-61
2023/11/20 13:03:04;;;;;;;2.47;1.17;;;13.80;99.90;;;;;;5084150;28;20277;-68